createdAt,value
2018-05-25T07:29:46.703Z,55.9
2018-05-25T07:30:37.054Z,56
2018-05-25T07:31:27.386Z,56
2018-05-25T07:32:17.479Z,56.2
2018-05-25T07:33:07.051Z,56.4
2018-05-25T07:33:57.591Z,56.6
2018-05-25T07:34:47.387Z,56.8
2018-05-25T07:35:36.968Z,56.9
2018-05-25T07:36:27.785Z,57.1
2018-05-25T07:37:17.304Z,57
2018-05-25T07:38:07.923Z,57.1
2018-05-25T07:38:57.424Z,57.3
2018-05-25T07:39:47.790Z,57.6
2018-05-25T07:40:38.103Z,57.8
2018-05-25T07:41:27.918Z,58.1
2018-05-25T07:42:18.244Z,58.3
2018-05-25T07:43:07.734Z,58.4
2018-05-25T07:43:58.103Z,58.5
2018-05-25T07:44:48.443Z,58.6
2018-05-25T07:45:37.968Z,58.8
2018-05-25T07:46:28.583Z,58.9
2018-05-25T07:47:18.684Z,59
2018-05-25T07:48:08.165Z,59.2
2018-05-25T07:48:58.777Z,59.3
2018-05-25T07:49:48.532Z,59.3
2018-05-25T07:50:38.613Z,59.4
2018-05-25T07:51:28.685Z,59.6
2018-05-25T07:52:19.019Z,59.8
2018-05-25T07:53:09.081Z,59.9
2018-05-25T07:53:59.129Z,59.9
2018-05-25T07:54:49.209Z,59.9
2018-05-25T07:55:38.694Z,60.1
2018-05-25T07:56:29.367Z,60.3
2018-05-25T07:57:19.421Z,60.5
2018-05-25T07:58:09.491Z,60.7
2018-05-25T07:58:59.545Z,60.8
2018-05-25T07:59:49.637Z,60.9
2018-05-25T08:00:39.690Z,61
2018-05-25T08:01:29.715Z,61.1
2018-05-25T08:02:18.943Z,61.3
2018-05-25T08:03:09.909Z,61.5
2018-05-25T08:03:59.904Z,61.6
2018-05-25T08:04:49.978Z,61.7
2018-05-25T08:05:40.057Z,61.9
2018-05-25T08:06:30.430Z,62.1
2018-05-25T08:07:20.178Z,62.3
2018-05-25T08:08:09.975Z,62.3
2018-05-25T08:09:00.320Z,62.3
2018-05-25T08:09:50.363Z,62.4
2018-05-25T08:10:39.898Z,62.7
2018-05-25T08:11:30.510Z,62.8
2018-05-25T08:12:20.302Z,62.9
2018-05-25T08:13:10.638Z,63.1
2018-05-25T08:14:00.441Z,63.3
2018-05-25T08:14:50.810Z,63.4
2018-05-25T08:15:40.330Z,63.5
2018-05-25T08:16:30.331Z,63.6
2018-05-25T08:17:20.108Z,63.8
2018-05-25T08:18:10.749Z,63.8
2018-05-25T08:19:00.810Z,63.8
2018-05-25T08:19:50.876Z,63.9
2018-05-25T08:20:41.209Z,64.1
2018-05-25T08:21:31.278Z,64.2
2018-05-25T08:22:20.868Z,64.4
2018-05-25T08:23:10.868Z,64.6
2018-05-25T08:24:01.492Z,64.7
2018-05-25T08:24:51.536Z,64.6
2018-05-25T08:25:41.344Z,64.6
2018-05-25T08:26:31.701Z,64.4
2018-05-25T08:27:21.728Z,64.6
2018-05-25T08:28:11.514Z,64.8
2018-05-25T08:29:01.863Z,64.9
2018-05-25T08:29:51.456Z,64.9
2018-05-25T08:30:41.710Z,64.9
2018-05-25T08:31:31.514Z,64.9
2018-05-25T08:32:22.141Z,65
2018-05-25T08:33:11.629Z,65.1
2018-05-25T08:34:02.021Z,65.1
2018-05-25T08:34:52.318Z,65.1
2018-05-25T08:35:42.098Z,65.2
2018-05-25T08:36:32.173Z,65.3
2018-05-25T08:37:22.506Z,65.4
2018-05-25T08:38:12.603Z,65.4
2018-05-25T08:39:02.680Z,65.6
2018-05-25T08:39:52.708Z,65.9
2018-05-25T08:40:42.484Z,65.9
2018-05-25T08:41:32.271Z,66.1
2018-05-25T08:42:22.896Z,66.2
2018-05-25T08:43:13.097Z,66
2018-05-25T08:44:03.013Z,65.9
2018-05-25T08:44:53.110Z,65.9
2018-05-25T08:45:42.585Z,65.9
2018-05-25T08:46:33.254Z,65.9
2018-05-25T08:47:23.287Z,66.1
2018-05-25T08:48:13.556Z,66.2
2018-05-25T08:49:03.557Z,66.4
2018-05-25T08:49:53.004Z,66.7
2018-05-25T08:50:43.292Z,66.9
2018-05-25T08:51:33.622Z,67
2018-05-25T08:52:23.676Z,67.1
2018-05-25T08:53:13.190Z,67.4
2018-05-25T08:54:03.947Z,67.6
2018-05-25T08:54:53.683Z,67.6
2018-05-25T08:55:44.002Z,67.6
2018-05-25T08:56:34.004Z,67.7
2018-05-25T08:57:23.514Z,67.8
2018-05-25T08:58:14.136Z,67.9
2018-05-25T08:59:04.231Z,67.9
2018-05-25T08:59:54.013Z,67.9
2018-05-25T09:00:43.820Z,67.9
2018-05-25T09:01:34.124Z,67.9
2018-05-25T09:02:24.465Z,67.6
2018-05-25T09:03:14.243Z,67.6
2018-05-25T09:04:04.605Z,67.7
2018-05-25T09:04:54.658Z,67.6
2018-05-25T09:05:44.453Z,67.5
2018-05-25T09:06:34.803Z,67.5
2018-05-25T09:07:24.860Z,67.6
2018-05-25T09:08:14.654Z,67.8
2018-05-25T09:09:04.431Z,67.9
2018-05-25T09:09:54.785Z,67.9
2018-05-25T09:10:44.831Z,67.9
2018-05-25T09:11:35.181Z,67.9
2018-05-25T09:12:25.637Z,68.1
2018-05-25T09:13:15.363Z,68.2
2018-05-25T09:14:05.109Z,68.3
2018-05-25T09:14:55.221Z,68.4
2018-05-25T09:15:45.226Z,68.6
2018-05-25T09:16:35.065Z,68.5
2018-05-25T09:17:25.111Z,68.4
2018-05-25T09:18:15.719Z,68.4
2018-05-25T09:19:05.480Z,68.4
2018-05-25T09:19:55.839Z,68.6
2018-05-25T09:20:45.603Z,68.8
2018-05-25T09:21:36.098Z,68.8
2018-05-25T09:22:25.754Z,68.6
2018-05-25T09:23:16.079Z,68.6
2018-05-25T09:24:06.146Z,68.6
2018-05-25T09:24:55.390Z,68.7
2018-05-25T09:25:45.987Z,68.8
2018-05-25T09:26:36.333Z,69
2018-05-25T09:27:25.569Z,69.1
2018-05-25T09:28:16.494Z,69.3
2018-05-25T09:29:05.967Z,69.3
2018-05-25T09:29:56.325Z,69.4
2018-05-25T09:30:46.737Z,69.5
2018-05-25T09:31:36.178Z,69.6
2018-05-25T09:32:26.779Z,69.7
2018-05-25T09:33:16.889Z,69.9
2018-05-25T09:34:06.936Z,70
2018-05-25T09:34:56.972Z,70.2
2018-05-25T09:35:47.060Z,70.3
2018-05-25T09:36:36.840Z,70.4
2018-05-25T09:37:26.936Z,70.6
2018-05-25T09:38:16.971Z,70.7
2018-05-25T09:39:07.366Z,70.9
2018-05-25T09:39:57.098Z,70.9
2018-05-25T09:40:47.450Z,70.3
2018-05-25T09:41:36.980Z,69.9
2018-05-25T09:42:27.608Z,70.2
2018-05-25T09:43:17.662Z,70.5
2018-05-25T09:44:07.420Z,70.9
2018-05-25T09:44:57.771Z,71.3
2018-05-25T09:45:47.265Z,71.4
2018-05-25T09:46:37.942Z,71.3
2018-05-25T09:47:27.408Z,71.1
2018-05-25T09:48:17.756Z,70.9
2018-05-25T09:49:08.113Z,69.4
2018-05-25T09:49:58.145Z,67.3
2018-05-25T09:50:48.224Z,65.3
2018-05-25T09:51:38.293Z,63.9
2018-05-25T09:52:28.389Z,63.1
2018-05-25T09:53:18.425Z,62.4
2018-05-25T09:54:08.217Z,62.2
2018-05-25T09:54:58.570Z,62.3
2018-05-25T09:55:48.624Z,63.3
2018-05-25T09:56:38.415Z,64.9
2018-05-25T09:57:28.735Z,66.2
2018-05-25T09:58:18.802Z,66.8
2018-05-25T09:59:08.302Z,67.1
2018-05-25T09:59:58.932Z,67.3
2018-05-25T10:00:48.731Z,67.2
2018-05-25T10:01:39.056Z,67.4
2018-05-25T10:02:29.116Z,68.1
2018-05-25T10:03:18.922Z,68.6
2018-05-25T10:04:09.282Z,69.1
2018-05-25T10:04:59.052Z,69.2
2018-05-25T10:05:49.440Z,69.3
2018-05-25T10:06:39.212Z,69.3
2018-05-25T10:07:28.944Z,69.5
2018-05-25T10:08:19.607Z,69.8
2018-05-25T10:09:09.381Z,69.4
2018-05-25T10:09:59.434Z,68.4
2018-05-25T10:10:49.521Z,67.1
2018-05-25T10:11:39.861Z,66.9
2018-05-25T10:12:29.902Z,67.9
2018-05-25T10:13:19.693Z,68.9
2018-05-25T10:14:10.060Z,68.9
2018-05-25T10:15:00.103Z,68.9
2018-05-25T10:15:50.159Z,68.9
2018-05-25T10:16:40.242Z,67.5
2018-05-25T10:17:30.025Z,65.6
2018-05-25T10:18:20.106Z,65.5
2018-05-25T10:19:09.864Z,67.1
2018-05-25T10:20:00.207Z,68.6
2018-05-25T10:20:50.558Z,69.9
2018-05-25T10:21:40.626Z,70.4
2018-05-25T10:22:30.678Z,70.4
2018-05-25T10:23:20.741Z,70.2
2018-05-25T10:24:10.830Z,70
2018-05-25T10:25:00.887Z,70.2
2018-05-25T10:25:50.674Z,69.9
2018-05-25T10:26:40.441Z,68.4
2018-05-25T10:27:31.072Z,66.5
2018-05-25T10:28:20.864Z,64.9
2018-05-25T10:29:11.177Z,63.9
2018-05-25T10:30:00.700Z,64.7
2018-05-25T10:30:51.330Z,66.6
2018-05-25T10:31:40.830Z,68.4
2018-05-25T10:32:31.168Z,69.1
2018-05-25T10:33:21.528Z,69.2
2018-05-25T10:34:11.610Z,69
2018-05-25T10:35:01.578Z,68.7
2018-05-25T10:35:51.710Z,68.6
2018-05-25T10:36:41.787Z,68.9
2018-05-25T10:37:31.838Z,69.5
2018-05-25T10:38:21.930Z,70.1
2018-05-25T10:39:11.409Z,70.6
2018-05-25T10:40:02.075Z,69.8
2018-05-25T10:40:51.837Z,68.1
2018-05-25T10:41:42.177Z,67.3
2018-05-25T10:42:32.239Z,66.3
2018-05-25T10:43:22.017Z,65.8
2018-05-25T10:44:12.081Z,65.4
2018-05-25T10:45:02.442Z,65.9
2018-05-25T10:45:52.499Z,67.2
2018-05-25T10:46:42.566Z,68.2
2018-05-25T10:47:32.605Z,68.8
2018-05-25T10:48:22.419Z,69
2018-05-25T10:49:12.193Z,69.1
2018-05-25T10:50:02.552Z,68.9
2018-05-25T10:50:52.587Z,69.1
2018-05-25T10:51:42.653Z,69.6
2018-05-25T10:52:33.010Z,70.1
2018-05-25T10:53:22.771Z,70.6
2018-05-25T10:54:13.176Z,70.9
2018-05-25T10:55:03.233Z,70.6
2018-05-25T10:55:53.108Z,70.3
2018-05-25T10:56:43.066Z,70.4
2018-05-25T10:57:32.808Z,70.6
2018-05-25T10:58:23.185Z,70.8
2018-05-25T10:59:13.254Z,71.1
2018-05-25T11:00:03.327Z,71.4
2018-05-25T11:00:53.700Z,71.6
2018-05-25T11:01:43.427Z,71.8
2018-05-25T11:02:33.489Z,71.8
2018-05-25T11:03:23.557Z,71.8
2018-05-25T11:04:12.782Z,71.8
2018-05-25T11:05:03.985Z,71.9
2018-05-25T11:05:53.481Z,72.1
2018-05-25T11:06:44.120Z,72.3
2018-05-25T11:07:34.181Z,72.6
2018-05-25T11:08:23.654Z,72.8
2018-05-25T11:09:13.747Z,72.9
2018-05-25T11:10:04.509Z,73.1
2018-05-25T11:10:54.137Z,73.1
2018-05-25T11:11:44.234Z,73.1
2018-05-25T11:12:34.561Z,73.2
2018-05-25T11:13:24.629Z,73.5
2018-05-25T11:14:14.693Z,73.8
2018-05-25T11:15:04.760Z,73.9
2018-05-25T11:15:54.811Z,73.8
2018-05-25T11:16:44.877Z,73.8
2018-05-25T11:17:34.397Z,73.6
2018-05-25T11:18:25.010Z,73.6
2018-05-25T11:19:15.068Z,73.6
2018-05-25T11:20:04.576Z,73.5
2018-05-25T11:20:55.353Z,73.4
2018-05-25T11:21:45.327Z,73.4
2018-05-25T11:22:35.349Z,73.4
2018-05-25T11:23:25.414Z,73.4
2018-05-25T11:24:14.933Z,73.3
2018-05-25T11:25:05.259Z,73.2
2018-05-25T11:25:55.597Z,73.3
2018-05-25T11:26:45.423Z,73.1
2018-05-25T11:27:35.755Z,73.3
2018-05-25T11:28:25.786Z,73.4
2018-05-25T11:29:15.842Z,73.5
2018-05-25T11:30:05.930Z,73.6
2018-05-25T11:30:55.414Z,73.6
2018-05-25T11:31:46.066Z,73.9
2018-05-25T11:32:36.106Z,73.9
2018-05-25T11:33:25.905Z,73.7
2018-05-25T11:34:15.995Z,73.5
2018-05-25T11:35:06.352Z,73.6
2018-05-25T11:35:56.100Z,73.9
2018-05-25T11:36:46.156Z,74
2018-05-25T11:37:36.236Z,73.5
2018-05-25T11:38:26.571Z,73.2
2018-05-25T11:39:16.090Z,73.3
2018-05-25T11:40:06.720Z,73.4
2018-05-25T11:40:56.204Z,73.6
2018-05-25T11:41:46.542Z,73.6
2018-05-25T11:42:36.640Z,73.4
2018-05-25T11:43:26.682Z,73.3
2018-05-25T11:44:17.050Z,73
2018-05-25T11:45:07.085Z,72.8
2018-05-25T11:45:56.877Z,72.8
2018-05-25T11:46:47.210Z,72.9
2018-05-25T11:47:36.998Z,73.1
2018-05-25T11:48:27.352Z,73.2
2018-05-25T11:49:17.432Z,73.1
2018-05-25T11:50:07.492Z,73.2
2018-05-25T11:50:57.562Z,73.4
2018-05-25T11:51:47.332Z,73.5
2018-05-25T11:52:37.674Z,73.3
2018-05-25T11:53:27.169Z,73.1
2018-05-25T11:54:17.513Z,73.1
2018-05-25T11:55:07.858Z,73.1
2018-05-25T11:55:57.922Z,72.9
2018-05-25T11:56:48.001Z,72.9
2018-05-25T11:57:38.081Z,72.9
2018-05-25T11:58:27.568Z,72.9
2018-05-25T11:59:17.917Z,72.4
2018-05-25T12:00:08.260Z,70.7
2018-05-25T12:00:58.317Z,69.7
2018-05-25T12:01:48.228Z,69.6
2018-05-25T12:02:37.902Z,69.1
2018-05-25T12:03:28.239Z,69.6
2018-05-25T12:04:18.561Z,70.6
2018-05-25T12:05:08.100Z,71.1
2018-05-25T12:05:58.738Z,71.3
2018-05-25T12:06:48.480Z,71.3
2018-05-25T12:07:38.825Z,70.4
2018-05-25T12:08:28.626Z,68.6
2018-05-25T12:09:18.995Z,66.9
2018-05-25T12:10:09.066Z,65.5
2018-05-25T12:10:59.113Z,65.1
2018-05-25T12:11:49.155Z,66.4
2018-05-25T12:12:38.953Z,67.9
2018-05-25T12:13:29.019Z,68.8
2018-05-25T12:14:19.351Z,69
2018-05-25T12:15:09.177Z,68.9
2018-05-25T12:15:59.475Z,68.6
2018-05-25T12:16:49.553Z,68.4
2018-05-25T12:17:39.332Z,68.3
2018-05-25T12:18:29.717Z,67.7
2018-05-25T12:19:19.741Z,66.8
2018-05-25T12:20:09.851Z,66.9
2018-05-25T12:20:59.601Z,67.1
2018-05-25T12:21:49.684Z,66.6
2018-05-25T12:22:39.727Z,66.3
2018-05-25T12:23:30.077Z,66.3
2018-05-25T12:24:20.139Z,66.6
2018-05-25T12:25:09.961Z,67.4
2018-05-25T12:54:21.933Z,85
2018-05-25T12:55:12.256Z,76.9
2018-05-25T12:56:02.607Z,75.8
2018-05-25T12:56:52.668Z,72.6
2018-05-25T12:57:42.716Z,67.4
2018-05-25T12:58:32.778Z,63.5
2018-05-25T12:59:22.875Z,61.8
2018-05-25T13:00:12.911Z,61.1
2018-05-25T13:01:02.694Z,61
2018-05-25T13:01:53.035Z,61.5
2018-05-25T13:02:43.108Z,62.4
2018-05-25T13:03:33.185Z,63.5
2018-05-25T13:04:23.226Z,64.6
2018-05-25T13:05:13.322Z,65.6
2018-05-25T13:06:03.086Z,66.8
2018-05-25T13:06:53.428Z,67.8
2018-05-25T13:07:43.492Z,68.6
2018-05-25T13:08:33.284Z,69.3
2018-05-25T13:09:22.847Z,69.8
2018-05-25T13:10:13.683Z,70.2
